Time;durP1;ratioP1;P1;durP2;ratioP2;P2;SDS_P1;SDS_P2;PMS_P1;PMS_P2;Temp;Humidity;BMP_temperature;BMP_pressure;BME280_temperature;BME280_humidity;BME280_pressure;Samples;Min_cycle;Max_cycle;Signal;HPM_P1;HPM_P2
2024/04/22 00:02:38;;;;;;;30.13;18.58;;;1.90;99.90;;;;;;5136565;27;20090;-80
2024/04/22 00:05:25;;;;;;;26.33;18.02;;;1.80;99.90;;;;;;5136117;27;20019;-80
2024/04/22 00:08:40;;;;;;;29.30;18.15;;;1.80;99.90;;;;;;5122577;27;20009;-81
2024/04/22 00:11:36;;;;;;;28.13;17.55;;;1.80;99.90;;;;;;5137332;27;20073;-81
2024/04/22 00:14:29;;;;;;;24.73;17.17;;;1.80;99.90;;;;;;5132889;27;20434;-80
2024/04/22 00:17:40;;;;;;;32.40;18.02;;;1.80;99.90;;;;;;5142361;27;20099;-80
2024/04/22 00:20:29;;;;;;;29.45;17.77;;;1.80;99.90;;;;;;5139158;27;20081;-81
2024/04/22 00:23:41;;;;;;;30.10;18.73;;;1.80;99.90;;;;;;5151930;27;20025;-80
2024/04/22 00:26:38;;;;;;;30.55;17.35;;;1.80;99.90;;;;;;5127345;27;20012;-82
2024/04/22 00:29:35;;;;;;;29.58;17.95;;;1.70;99.90;;;;;;5133312;27;20014;-81
2024/04/22 00:32:33;;;;;;;26.42;18.05;;;1.70;99.90;;;;;;5120359;27;20020;-80
2024/04/22 00:35:34;;;;;;;27.40;18.13;;;1.70;99.90;;;;;;5130387;27;20104;-82
2024/04/22 00:38:40;;;;;;;31.30;18.05;;;1.70;99.90;;;;;;5125716;27;20093;-83
2024/04/22 00:41:54;;;;;;;28.48;17.52;;;1.70;99.90;;;;;;5132395;27;20088;-80
2024/04/22 00:44:50;;;;;;;27.60;18.38;;;1.70;99.90;;;;;;5119077;27;20041;-81
2024/04/22 00:48:00;;;;;;;29.92;17.85;;;1.70;99.90;;;;;;5119229;27;20005;-79
2024/04/22 00:51:14;;;;;;;31.27;17.80;;;1.70;99.90;;;;;;5131192;27;20018;-80
2024/04/22 00:54:07;;;;;;;26.50;17.27;;;1.70;99.90;;;;;;5133459;27;20013;-82
2024/04/22 00:57:31;;;;;;;30.63;18.00;;;1.70;99.90;;;;;;5134604;27;20009;-81
2024/04/22 01:00:34;;;;;;;27.83;17.67;;;1.70;99.90;;;;;;5177918;22;20019;-80
2024/04/22 01:03:35;;;;;;;31.25;18.17;;;1.60;99.90;;;;;;5123182;27;20597;-82
2024/04/22 01:06:28;;;;;;;30.05;17.98;;;1.60;99.90;;;;;;5133753;27;20031;-80
2024/04/22 01:09:34;;;;;;;33.00;19.13;;;1.60;99.90;;;;;;5142433;27;20017;-81
2024/04/22 01:12:32;;;;;;;27.40;18.10;;;1.50;99.90;;;;;;5136786;27;20013;-81
2024/04/22 01:15:51;;;;;;;28.08;16.70;;;1.50;99.90;;;;;;5120775;27;20028;-81
2024/04/22 01:19:08;;;;;;;31.35;16.80;;;1.50;99.90;;;;;;5137774;27;20074;-81
2024/04/22 01:22:27;;;;;;;29.65;17.98;;;1.40;99.90;;;;;;5126842;27;20013;-80
2024/04/22 01:25:27;;;;;;;31.75;17.52;;;1.40;99.90;;;;;;5127582;27;20025;-80
2024/04/22 01:28:32;;;;;;;30.33;16.98;;;1.40;99.90;;;;;;5122631;27;20433;-82
2024/04/22 01:31:27;;;;;;;35.47;18.63;;;1.40;99.90;;;;;;5129887;27;20977;-83
2024/04/22 01:34:26;;;;;;;28.00;17.75;;;1.40;99.90;;;;;;5134131;27;20021;-81
2024/04/22 01:37:48;;;;;;;32.40;17.70;;;1.40;99.90;;;;;;5127378;27;20013;-81
2024/04/22 01:40:49;;;;;;;31.02;17.10;;;1.40;99.90;;;;;;5127067;27;20013;-81
2024/04/22 01:44:09;;;;;;;;;;;;;;;;;;;;;
2024/04/22 01:47:22;;;;;;;27.90;17.73;;;1.30;99.90;;;;;;5128972;27;20009;-83
2024/04/22 01:50:12;;;;;;;23.40;16.23;;;1.20;99.90;;;;;;5129675;27;20021;-82
2024/04/22 01:53:34;;;;;;;28.92;17.52;;;1.20;99.90;;;;;;5122901;27;20017;-79
2024/04/22 01:57:03;;;;;;;28.55;16.58;;;1.20;99.90;;;;;;5151503;27;20107;-80
2024/04/22 02:00:05;;;;;;;30.58;18.58;;;1.20;99.90;;;;;;5138729;27;20085;-83
2024/04/22 02:02:57;;;;;;;30.77;16.73;;;1.30;99.90;;;;;;5132420;27;20013;-81
2024/04/22 02:05:44;;;;;;;32.38;18.20;;;1.30;99.90;;;;;;5138675;27;20009;-82
2024/04/22 02:09:09;;;;;;;30.33;17.05;;;1.30;99.90;;;;;;5127543;27;20009;-80
2024/04/22 02:12:05;;;;;;;27.77;17.20;;;1.20;99.90;;;;;;5126589;27;20008;-81
2024/04/22 02:15:02;;;;;;;27.77;17.23;;;1.20;99.90;;;;;;5127158;27;20104;-80
2024/04/22 02:18:30;;;;;;;24.60;16.63;;;1.20;99.90;;;;;;5132188;27;20008;-78
2024/04/22 02:21:34;;;;;;;31.05;17.48;;;1.20;99.90;;;;;;5143908;27;20009;-80
2024/04/22 02:24:24;;;;;;;;;;;1.20;99.90;;;;;;5144291;27;20135;-81
2024/04/22 02:27:47;;;;;;;27.38;16.65;;;1.10;99.90;;;;;;5140319;27;19929;-82
2024/04/22 02:31:12;;;;;;;32.03;17.50;;;1.10;99.90;;;;;;5141569;27;20023;-82
2024/04/22 02:34:22;;;;;;;29.35;17.77;;;1.00;99.90;;;;;;5123792;27;20281;-80
2024/04/22 02:37:29;;;;;;;28.17;16.50;;;0.90;99.90;;;;;;5150903;27;20081;-81
2024/04/22 02:40:24;;;;;;;35.80;17.58;;;0.90;99.90;;;;;;5130042;27;20506;-82
2024/04/22 02:43:50;;;;;;;26.92;17.10;;;0.90;99.90;;;;;;5130330;27;20089;-81
2024/04/22 02:54:54;;;;;;;31.25;18.65;;;0.70;99.90;;;;;;5139941;27;20017;-81
2024/04/22 03:01:25;;;;;;;28.30;18.80;;;0.60;99.90;;;;;;5150256;27;20058;-82
2024/04/22 03:04:14;;;;;;;31.55;19.80;;;0.50;99.90;;;;;;5153023;27;20009;-80
2024/04/22 03:07:10;;;;;;;31.27;19.42;;;0.50;99.90;;;;;;5151132;27;20059;-83
2024/04/22 03:10:12;;;;;;;34.60;20.05;;;0.50;99.90;;;;;;5121666;27;20031;-82
2024/04/22 03:13:21;;;;;;;37.58;20.35;;;0.50;99.90;;;;;;5122215;27;20028;-82
2024/04/22 03:16:11;;;;;;;44.03;22.15;;;0.60;99.90;;;;;;5130862;27;20045;-81
2024/04/22 03:19:02;;;;;;;42.42;23.05;;;0.60;99.90;;;;;;5130742;27;20023;-80
2024/04/22 03:21:58;;;;;;;39.53;22.50;;;0.60;99.90;;;;;;5142213;27;20479;-80
2024/04/22 03:24:53;;;;;;;38.65;23.60;;;0.70;99.90;;;;;;5141859;27;20636;-82
2024/04/22 03:28:08;;;;;;;39.08;23.77;;;0.70;99.90;;;;;;5128061;27;20016;-80
2024/04/22 03:30:55;;;;;;;43.92;23.90;;;0.70;99.90;;;;;;5131225;27;20418;-84
2024/04/22 03:33:43;;;;;;;44.58;24.60;;;0.80;99.90;;;;;;5156208;27;20005;-82
2024/04/22 03:36:49;;;;;;;44.97;25.27;;;0.70;99.90;;;;;;5142524;27;20009;-82
2024/04/22 03:39:41;;;;;;;45.42;26.38;;;0.60;99.90;;;;;;5145770;27;20430;-79
2024/04/22 03:42:41;;;;;;;51.17;26.13;;;0.60;99.90;;;;;;5121393;27;20656;-79
2024/04/22 03:45:31;;;;;;;48.47;26.25;;;0.60;99.90;;;;;;5137153;27;20025;-79
2024/04/22 03:51:27;;;;;;;47.22;26.83;;;0.50;99.90;;;;;;5186330;27;20127;-78
2024/04/22 03:54:20;;;;;;;46.47;27.47;;;0.50;99.90;;;;;;5183457;27;20085;-83
2024/04/22 03:57:16;;;;;;;46.58;27.65;;;0.50;99.90;;;;;;5160205;27;20021;-83
2024/04/22 04:00:16;;;;;;;49.25;26.73;;;0.40;99.90;;;;;;5148823;27;20021;-82
2024/04/22 04:03:24;;;;;;;48.35;25.73;;;0.30;99.90;;;;;;5169220;27;20376;-83
2024/04/22 04:06:15;;;;;;;48.03;28.35;;;0.20;99.90;;;;;;5161335;27;20012;-82
2024/04/22 04:09:07;;;;;;;45.53;26.92;;;0.20;99.90;;;;;;5151309;27;20020;-82
2024/04/22 04:12:03;;;;;;;46.40;26.33;;;0.30;99.90;;;;;;5150606;27;20012;-80
2024/04/22 04:14:50;;;;;;;46.55;26.30;;;0.20;99.90;;;;;;5161773;27;20026;-79
2024/04/22 04:17:37;;;;;;;43.80;25.85;;;0.30;99.90;;;;;;5162841;27;20012;-82
2024/04/22 04:20:37;;;;;;;49.40;26.45;;;0.30;99.90;;;;;;5147049;27;20017;-82
2024/04/22 04:23:25;;;;;;;47.28;27.50;;;0.30;99.90;;;;;;5152720;27;20004;-83
2024/04/22 04:26:22;;;;;;;42.83;25.50;;;0.30;99.90;;;;;;5154112;27;20016;-82
2024/04/22 04:29:23;;;;;;;42.03;25.02;;;0.40;99.90;;;;;;5144130;27;20089;-82
2024/04/22 04:32:23;;;;;;;43.50;24.88;;;0.50;99.90;;;;;;5160892;27;20009;-81
2024/04/22 04:35:44;;;;;;;45.25;23.90;;;0.40;99.90;;;;;;5162891;27;20041;-81
2024/04/22 04:39:12;;;;;;;45.17;25.48;;;0.40;99.90;;;;;;5166420;27;20021;-81
2024/04/22 04:42:13;;;;;;;46.88;25.23;;;0.40;99.90;;;;;;5178244;27;20057;-81
2024/04/22 04:45:00;;;;;;;45.80;24.70;;;0.30;99.90;;;;;;5182766;27;20029;-81
2024/04/22 04:48:03;;;;;;;44.50;25.05;;;0.30;99.90;;;;;;5170380;27;20388;-80
2024/04/22 04:51:04;;;;;;;46.75;26.52;;;0.20;99.90;;;;;;5155308;27;20017;-80
2024/04/22 04:54:37;;;;;;;48.83;25.98;;;0.20;99.90;;;;;;5157673;27;20008;-81
2024/04/22 04:58:07;;;;;;;52.25;26.23;;;0.10;99.90;;;;;;5175001;27;20057;-80
2024/04/22 05:17:03;;;;;;;44.00;25.48;;;0.10;99.90;;;;;;5184425;27;20668;-82
2024/04/22 05:24:13;;;;;;;47.70;25.48;;;0.10;99.90;;;;;;5118895;27;20800;-83
2024/04/22 07:07:39;;;;;;;;;;;;;;;;;;;;;
2024/04/22 07:20:36;;;;;;;9.93;6.10;;;1.40;99.90;;;;;;5072491;27;20017;-83
2024/04/22 07:37:13;;;;;;;;;;;;;;;;;;;;;
2024/04/22 08:27:13;;;;;;;6.30;4.53;;;3.90;1.00;;;;;;6260457;22;20003;-80
2024/04/22 08:30:48;;;;;;;10.77;4.70;;;4.00;99.90;;;;;;6317200;21;20040;-77
2024/04/22 09:33:36;;;;;;;4.75;3.55;;;4.80;99.90;;;;;;6499170;22;20001;-78
2024/04/22 09:37:41;;;;;;;;;;;;;;;;;;;;;
2024/04/22 09:53:31;;;;;;;;;;;;;;;;;;;;;
2024/04/22 09:57:22;;;;;;;4.72;3.05;;;5.60;99.90;;;;;;6487663;22;20001;-79
2024/04/22 10:18:04;;;;;;;4.63;3.13;;;7.50;99.90;;;;;;6192949;23;20421;-81
2024/04/22 10:43:45;;;;;;;;;;;;;;;;;;;;;
2024/04/22 11:14:06;;;;;;;;;;;;;;;;;;;;;
2024/04/22 13:05:32;;;;;;;;;;;;;;;;;;;;;
2024/04/22 13:09:25;;;;;;;;;;;;;;;;;;;;;
2024/04/22 13:13:18;;;;;;;;;;;;;;;;;;;;;
2024/04/22 13:21:49;;;;;;;2.75;2.30;;;8.90;1.00;;;;;;6320067;22;20785;-84
2024/04/22 13:25:08;;;;;;;2.70;2.43;;;9.20;1.00;;;;;;6083593;23;20033;-84
2024/04/22 13:30:55;;;;;;;3.00;2.00;;;9.20;1.00;;;;;;6510950;22;20025;-87
2024/04/22 13:33:57;;;;;;;2.50;2.30;;;9.30;1.00;;;;;;6475975;22;20012;-82
2024/04/22 13:37:02;;;;;;;2.90;2.10;;;9.40;1.00;;;;;;6526418;22;20016;-84
2024/04/22 13:40:09;;;;;;;2.53;1.98;;;9.50;1.00;;;;;;6530495;22;20048;-87
2024/04/22 13:43:07;;;;;;;3.45;2.40;;;9.20;1.00;;;;;;6509886;22;19997;-82
2024/04/22 13:46:10;;;;;;;3.22;2.58;;;8.50;1.00;;;;;;6531235;21;20024;-80
2024/04/22 13:49:02;;;;;;;2.58;2.38;;;8.30;1.00;;;;;;6546218;22;20189;-82
2024/04/22 13:52:10;;;;;;;3.60;3.05;;;8.40;1.00;;;;;;6529257;22;20018;-81
2024/04/22 13:55:06;;;;;;;3.92;2.80;;;8.40;1.00;;;;;;6527378;21;20001;-79
2024/04/22 13:58:02;;;;;;;3.95;3.25;;;8.70;1.00;;;;;;6520608;21;20005;-80
2024/04/22 14:00:59;;;;;;;4.07;2.40;;;8.70;1.00;;;;;;6519406;22;20005;-83
2024/04/22 14:04:15;;;;;;;3.38;2.30;;;8.80;1.00;;;;;;6506480;22;20017;-85
2024/04/22 14:07:21;;;;;;;6.25;2.80;;;8.80;1.00;;;;;;6507566;22;20075;-84
2024/04/22 14:10:23;;;;;;;9.27;5.45;;;8.80;1.00;;;;;;6517856;21;20005;-79
2024/04/22 14:13:27;;;;;;;4.70;3.08;;;8.80;1.00;;;;;;6509003;21;20029;-84
2024/04/22 14:16:23;;;;;;;5.35;2.28;;;8.80;1.00;;;;;;6506832;22;20498;-83
2024/04/22 14:19:40;;;;;;;2.35;2.10;;;8.70;1.00;;;;;;6507400;22;20088;-83
2024/04/22 14:22:47;;;;;;;4.30;2.45;;;8.50;1.00;;;;;;6509804;22;20029;-84
2024/04/22 14:25:43;;;;;;;2.38;2.13;;;8.80;1.00;;;;;;6476980;22;20011;-84
2024/04/22 14:28:34;;;;;;;3.92;2.30;;;9.20;1.00;;;;;;6504114;22;20489;-81
2024/04/22 14:31:26;;;;;;;3.35;2.50;;;9.30;1.00;;;;;;6512499;21;19997;-81
2024/04/22 14:34:27;;;;;;;4.95;2.35;;;9.30;1.00;;;;;;6507276;22;20015;-84
2024/04/22 14:37:32;;;;;;;5.13;2.75;;;9.30;1.00;;;;;;6506765;22;20045;-86
2024/04/22 14:40:38;;;;;;;5.10;2.70;;;9.30;1.00;;;;;;6505660;22;20013;-85
2024/04/22 14:43:32;;;;;;;5.13;2.42;;;9.00;1.00;;;;;;6508437;22;20493;-85
2024/04/22 14:46:28;;;;;;;3.40;2.60;;;9.00;1.00;;;;;;6510242;22;20319;-86
2024/04/22 14:49:15;;;;;;;4.15;2.33;;;8.90;1.00;;;;;;6512966;21;20016;-86
2024/04/22 14:52:09;;;;;;;4.10;2.47;;;8.90;1.00;;;;;;6511095;21;20378;-87
2024/04/22 14:54:58;;;;;;;2.38;2.17;;;9.60;1.00;;;;;;6533413;21;20033;-79
2024/04/22 14:57:50;;;;;;;3.03;2.22;;;9.50;1.00;;;;;;6539567;21;20048;-84
2024/04/22 15:00:39;;;;;;;3.10;2.45;;;8.80;1.00;;;;;;6530553;21;20011;-83
2024/04/22 15:03:29;;;;;;;4.10;2.35;;;8.60;1.00;;;;;;6503106;22;20012;-79
2024/04/22 15:07:03;;;;;;;5.40;2.50;;;8.50;1.00;;;;;;6525808;22;20346;-84
2024/04/22 15:09:59;;;;;;;3.20;2.60;;;8.30;1.00;;;;;;6514755;21;19997;-84
2024/04/22 15:13:00;;;;;;;5.03;2.17;;;8.20;1.00;;;;;;6520845;22;19998;-83
2024/04/22 15:15:48;;;;;;;2.97;2.50;;;8.10;1.00;;;;;;6507350;22;20567;-83
2024/04/22 15:18:45;;;;;;;3.20;2.00;;;8.10;1.00;;;;;;6518062;22;20029;-82
2024/04/22 15:21:38;;;;;;;2.92;2.13;;;8.00;1.00;;;;;;6523334;22;20481;-82
2024/04/22 15:24:35;;;;;;;3.28;2.20;;;8.00;1.00;;;;;;6522240;22;20009;-84
2024/04/22 15:27:42;;;;;;;2.67;2.25;;;8.10;1.00;;;;;;6497604;22;20005;-83
2024/04/22 15:30:56;;;;;;;2.45;2.17;;;8.20;1.00;;;;;;6515983;21;20045;-83
2024/04/22 15:33:58;;;;;;;2.95;2.20;;;8.40;1.00;;;;;;6508708;21;19997;-84
2024/04/22 15:36:55;;;;;;;3.35;2.35;;;8.40;1.00;;;;;;6522551;21;20012;-79
2024/04/22 15:40:09;;;;;;;3.05;2.60;;;8.80;1.00;;;;;;6511441;22;20020;-82
2024/04/22 15:43:00;;;;;;;2.88;2.47;;;8.90;1.00;;;;;;6503724;22;19998;-81
2024/04/22 15:46:02;;;;;;;4.05;2.83;;;8.90;1.00;;;;;;6504723;22;20442;-86
2024/04/22 15:48:52;;;;;;;;;;;8.80;1.00;;;;;;6509967;21;20001;-79
2024/04/22 15:51:47;;;;;;;4.18;2.88;;;8.60;1.00;;;;;;6521860;22;19933;-82
2024/04/22 15:54:46;;;;;;;5.93;4.15;;;8.50;1.00;;;;;;6520647;22;20005;-82
2024/04/22 15:57:49;;;;;;;4.10;3.30;;;8.30;1.00;;;;;;6514430;21;20008;-82
2024/04/22 16:01:11;;;;;;;4.72;3.55;;;8.10;1.00;;;;;;6520714;21;20015;-83
2024/04/22 16:04:27;;;;;;;4.65;3.30;;;8.00;1.00;;;;;;6505168;22;20001;-86
2024/04/22 16:07:21;;;;;;;6.05;3.78;;;8.00;1.00;;;;;;6508727;21;20005;-86
2024/04/22 16:10:09;;;;;;;4.38;3.03;;;8.00;1.00;;;;;;6508239;22;20012;-85
2024/04/22 16:13:03;;;;;;;5.00;3.42;;;8.00;1.00;;;;;;6519019;22;20430;-84
2024/04/22 16:19:27;;;;;;;3.30;2.97;;;7.80;1.00;;;;;;6511143;21;20109;-84
2024/04/22 16:22:36;;;;;;;5.13;3.15;;;7.50;1.00;;;;;;6509742;21;20009;-84
2024/04/22 16:25:52;;;;;;;3.75;2.97;;;7.40;1.00;;;;;;6502392;22;20414;-87
2024/04/22 16:28:49;;;;;;;4.30;3.10;;;7.30;1.00;;;;;;6505277;22;20008;-86
2024/04/22 16:31:38;;;;;;;4.22;3.22;;;7.10;1.00;;;;;;6510109;21;20243;-86
2024/04/22 16:34:42;;;;;;;4.70;3.08;;;6.90;1.00;;;;;;6509004;22;20005;-84
2024/04/22 16:37:43;;;;;;;3.78;3.20;;;6.90;1.00;;;;;;6513024;21;20020;-82
2024/04/22 16:40:36;;;;;;;3.65;2.60;;;6.80;1.00;;;;;;6505376;22;20017;-82
2024/04/22 16:43:30;;;;;;;2.85;2.60;;;6.80;1.00;;;;;;6496898;22;20005;-84
2024/04/22 16:46:39;;;;;;;7.13;2.65;;;6.70;1.00;;;;;;6508107;21;20020;-84
2024/04/22 16:50:03;;;;;;;4.13;2.33;;;6.60;1.00;;;;;;6509614;21;20001;-83
2024/04/22 16:54:12;;;;;;;3.25;2.50;;;6.50;1.00;;;;;;6505817;22;20001;-84
2024/04/22 16:57:37;;;;;;;4.90;2.35;;;6.40;1.00;;;;;;6482900;22;20020;-83
2024/04/22 17:00:36;;;;;;;4.43;2.45;;;6.30;1.00;;;;;;6521302;22;20005;-79
2024/04/22 17:03:44;;;;;;;3.25;2.33;;;6.30;1.00;;;;;;6520387;22;20024;-83
2024/04/22 17:06:48;;;;;;;2.65;2.22;;;6.10;1.00;;;;;;6504605;21;20044;-82
2024/04/22 17:09:47;;;;;;;2.92;2.65;;;6.10;1.00;;;;;;6507183;21;20490;-82
2024/04/22 17:12:38;;;;;;;2.45;2.20;;;6.10;1.00;;;;;;6524400;22;19997;-83
2024/04/22 17:15:34;;;;;;;6.03;2.85;;;6.00;1.00;;;;;;6523200;22;20812;-82
2024/04/22 17:19:14;;;;;;;;;;;;;;;;;;;;;
2024/04/22 17:22:21;;;;;;;2.55;2.00;;;5.90;1.00;;;;;;6502804;22;20103;-83
2024/04/22 17:26:30;;;;;;;;;;;;;;;;;;;;;
2024/04/22 17:30:44;;;;;;;;;;;;;;;;;;;;;
2024/04/22 17:38:08;;;;;;;3.65;3.25;;;5.80;1.00;;;;;;6263849;21;20099;-83
2024/04/22 17:41:21;;;;;;;4.15;2.92;;;5.70;1.00;;;;;;6509315;22;20009;-83
2024/04/22 17:44:51;;;;;;;3.40;3.08;;;5.70;1.00;;;;;;6508088;22;20015;-81
2024/04/22 17:47:58;;;;;;;4.25;3.03;;;5.60;1.00;;;;;;6523681;22;20872;-81
2024/04/22 17:51:28;;;;;;;5.05;3.25;;;5.60;1.00;;;;;;6508517;22;20005;-82
2024/04/22 17:55:03;;;;;;;4.72;3.30;;;5.50;1.00;;;;;;6518295;22;20001;-80
2024/04/22 17:58:18;;;;;;;3.50;3.20;;;5.40;1.00;;;;;;6465713;21;19997;-81
2024/04/22 18:01:25;;;;;;;4.18;3.78;;;5.40;1.00;;;;;;6508334;22;20016;-82
2024/04/22 18:04:25;;;;;;;4.68;3.25;;;5.30;1.00;;;;;;6513872;22;20463;-83
2024/04/22 18:07:40;;;;;;;4.07;3.40;;;5.20;1.00;;;;;;6522812;21;20008;-80
2024/04/22 18:14:37;;;;;;;;;;;5.00;1.00;;;;;;6514503;21;20527;-83
2024/04/22 18:17:52;;;;;;;5.20;3.67;;;4.90;3.20;;;;;;6512478;22;19922;-82
2024/04/22 18:20:52;;;;;;;3.42;2.95;;;4.90;13.30;;;;;;6510847;21;20021;-82
2024/04/22 18:23:53;;;;;;;7.35;3.30;;;4.80;15.10;;;;;;6511564;22;20489;-83
2024/04/22 18:26:49;;;;;;;4.18;3.10;;;4.80;19.10;;;;;;6527038;22;20036;-83
2024/04/22 18:30:00;;;;;;;4.25;3.33;;;4.80;17.70;;;;;;6516648;22;20024;-82
2024/04/22 18:33:00;;;;;;;6.28;3.63;;;4.80;16.20;;;;;;6510438;22;20012;-82
2024/04/22 18:35:59;;;;;;;3.97;3.38;;;4.80;18.50;;;;;;6505143;22;20097;-82
2024/04/22 18:38:50;;;;;;;3.20;2.90;;;4.70;18.10;;;;;;6521142;21;20009;-81
2024/04/22 18:41:44;;;;;;;3.78;3.38;;;4.70;19.40;;;;;;6524081;21;20079;-83
2024/04/22 18:44:52;;;;;;;3.40;3.10;;;4.70;23.80;;;;;;6511041;22;20001;-81
2024/04/22 18:47:56;;;;;;;4.53;2.97;;;4.70;24.80;;;;;;6492337;22;20005;-82
2024/04/22 18:55:01;;;;;;;3.70;2.75;;;4.60;28.20;;;;;;6447227;21;19998;-85
2024/04/22 18:57:52;;;;;;;5.45;3.30;;;4.60;28.90;;;;;;6510272;22;20970;-82
2024/04/22 19:00:54;;;;;;;3.42;2.90;;;4.50;26.20;;;;;;6515269;21;20001;-81
2024/04/22 19:04:08;;;;;;;4.57;3.40;;;4.50;31.00;;;;;;6520247;22;20009;-82
2024/04/22 19:07:11;;;;;;;4.45;2.63;;;4.50;35.50;;;;;;6512091;21;20087;-83
2024/04/22 19:10:15;;;;;;;3.80;3.03;;;4.40;36.50;;;;;;6511667;21;20016;-81
2024/04/22 19:13:30;;;;;;;4.22;3.08;;;4.50;44.00;;;;;;6513123;22;20088;-85
2024/04/22 19:16:30;;;;;;;6.72;3.22;;;4.40;50.30;;;;;;6510217;22;20012;-83
2024/04/22 19:19:44;;;;;;;4.80;3.00;;;4.40;54.30;;;;;;6513100;22;20008;-84
2024/04/22 19:22:41;;;;;;;3.25;2.90;;;4.40;58.80;;;;;;6511508;22;20322;-82
2024/04/22 19:25:51;;;;;;;3.85;2.95;;;4.40;65.40;;;;;;6503207;22;20075;-82
2024/04/22 19:28:54;;;;;;;4.55;3.38;;;4.40;66.90;;;;;;6506618;22;20034;-81
2024/04/22 19:31:54;;;;;;;;;;;;;;;;;;;;;
2024/04/22 19:35:02;;;;;;;4.13;3.25;;;4.40;76.40;;;;;;6507324;22;20473;-82
2024/04/22 19:38:10;;;;;;;5.75;3.10;;;4.40;86.00;;;;;;6511562;21;20481;-82
2024/04/22 19:41:20;;;;;;;4.30;3.38;;;4.30;94.20;;;;;;6502719;22;20001;-83
2024/04/22 19:44:15;;;;;;;3.63;2.97;;;4.30;99.80;;;;;;6509494;22;20012;-83
2024/04/22 19:47:28;;;;;;;;;;;;;;;;;;;;;
2024/04/22 19:50:26;;;;;;;8.40;3.60;;;4.30;99.90;;;;;;6509209;22;20012;-83
2024/04/22 19:53:25;;;;;;;4.75;4.07;;;4.30;99.90;;;;;;6511212;22;20005;-81
2024/04/22 19:56:36;;;;;;;4.78;3.47;;;4.20;99.90;;;;;;6506210;21;20036;-83
2024/04/22 19:59:27;;;;;;;7.72;4.47;;;4.20;99.90;;;;;;6513322;21;20005;-81
2024/04/22 20:02:34;;;;;;;7.78;4.43;;;4.20;99.90;;;;;;6510120;22;20029;-84
2024/04/22 20:05:30;;;;;;;4.45;4.05;;;4.20;99.90;;;;;;6510230;21;20008;-84
2024/04/22 20:09:13;;;;;;;7.30;4.68;;;4.20;99.90;;;;;;6521735;21;20021;-85
2024/04/22 20:12:34;;;;;;;6.90;4.35;;;4.10;99.90;;;;;;6393662;21;20064;-83
2024/04/22 20:16:13;;;;;;;5.50;4.63;;;4.10;99.90;;;;;;6529785;22;20009;-81
2024/04/22 20:23:41;;;;;;;6.20;4.53;;;4.10;99.90;;;;;;6516518;22;20005;-84
2024/04/22 20:27:32;;;;;;;;;;;;;;;;;;;;;
2024/04/22 20:33:40;;;;;;;;;;;;;;;;;;;;;
2024/04/22 20:36:56;;;;;;;5.25;4.40;;;3.40;99.90;;;;;;6474177;21;19997;-82
2024/04/22 20:40:19;;;;;;;7.00;5.10;;;3.20;99.90;;;;;;6521742;21;20005;-81
2024/04/22 20:43:37;;;;;;;9.30;4.65;;;3.10;99.90;;;;;;6514564;22;20456;-83
2024/04/22 20:46:38;;;;;;;9.55;5.05;;;2.90;99.90;;;;;;6516423;22;20005;-80
2024/04/22 20:49:37;;;;;;;10.95;5.55;;;2.80;99.90;;;;;;6522040;21;20016;-83
2024/04/22 20:56:18;;;;;;;7.45;5.53;;;2.60;99.90;;;;;;6510788;21;20025;-82
2024/04/22 20:59:42;;;;;;;7.68;5.70;;;2.60;99.90;;;;;;6523191;21;20016;-82
2024/04/22 21:03:09;;;;;;;12.30;6.63;;;2.60;99.90;;;;;;6533560;21;20053;-82
2024/04/22 21:06:38;;;;;;;;;;;;;;;;;;;;;
2024/04/22 21:09:53;;;;;;;13.18;6.13;;;2.50;99.90;;;;;;6532283;21;20020;-82
2024/04/22 21:12:57;;;;;;;10.10;6.57;;;2.40;99.90;;;;;;6532814;22;20201;-82
2024/04/22 21:16:21;;;;;;;8.98;6.70;;;2.30;99.90;;;;;;6528987;22;20033;-82
2024/04/22 21:23:59;;;;;;;10.50;7.28;;;2.10;1.00;;;;;;6505516;21;20283;-82
2024/04/22 21:27:19;;;;;;;10.50;7.28;;;1.90;1.00;;;;;;6524317;21;20016;-83
2024/04/22 21:30:33;;;;;;;9.40;6.80;;;1.80;1.00;;;;;;6502141;21;20016;-81
2024/04/22 21:34:01;;;;;;;11.63;7.85;;;1.70;1.00;;;;;;6525833;22;20001;-82
2024/04/22 21:36:58;;;;;;;12.30;7.53;;;1.60;1.00;;;;;;6520273;22;20005;-83
2024/04/22 21:40:04;;;;;;;12.02;7.95;;;1.50;1.00;;;;;;6530866;21;20400;-84
2024/04/22 21:42:57;;;;;;;13.55;7.72;;;1.50;34.30;;;;;;6516703;21;20001;-80
2024/04/22 21:46:03;;;;;;;14.15;8.13;;;1.50;99.90;;;;;;6518762;22;20451;-83
2024/04/22 21:49:04;;;;;;;12.70;7.50;;;1.40;99.90;;;;;;6517872;21;20012;-83
2024/04/22 21:51:53;;;;;;;12.18;7.90;;;1.30;99.90;;;;;;6527299;22;20022;-83
2024/04/22 21:54:43;;;;;;;14.02;7.78;;;1.20;99.90;;;;;;6509946;22;20041;-81
2024/04/22 21:58:11;;;;;;;13.52;8.40;;;1.10;99.90;;;;;;6525034;22;20005;-82
2024/04/22 22:01:40;;;;;;;13.30;8.30;;;1.00;99.90;;;;;;6514710;22;20041;-83
2024/04/22 22:05:05;;;;;;;15.88;8.73;;;0.90;99.90;;;;;;6521429;22;20012;-82
2024/04/22 22:07:53;;;;;;;16.73;9.13;;;0.90;99.90;;;;;;6516355;22;20016;-82
2024/04/22 22:11:04;;;;;;;11.68;8.23;;;0.90;99.90;;;;;;6516438;22;20001;-82
2024/04/22 22:13:52;;;;;;;15.57;8.65;;;0.80;1.00;;;;;;6513237;22;20048;-83
2024/04/22 22:16:42;;;;;;;14.18;8.77;;;0.70;1.00;;;;;;6516793;22;20481;-82
2024/04/22 22:19:33;;;;;;;17.45;10.25;;;0.70;1.00;;;;;;6517000;21;20084;-83
2024/04/22 22:22:24;;;;;;;13.35;9.20;;;0.60;1.00;;;;;;6514986;22;20007;-84
2024/04/22 22:25:18;;;;;;;13.52;8.80;;;0.60;1.00;;;;;;6512378;22;20005;-83
2024/04/22 22:28:17;;;;;;;12.80;8.70;;;0.50;1.00;;;;;;6513880;21;20005;-84
2024/04/22 22:31:26;;;;;;;16.77;9.48;;;0.40;6.50;;;;;;6515555;22;20017;-82
2024/04/22 22:34:24;;;;;;;14.80;8.98;;;0.40;66.70;;;;;;6513395;22;20001;-81
2024/04/22 22:37:12;;;;;;;13.02;9.07;;;0.30;91.60;;;;;;6508635;22;20005;-81
2024/04/22 22:40:03;;;;;;;12.73;8.93;;;0.30;99.90;;;;;;6530941;21;20001;-81
2024/04/22 22:43:11;;;;;;;13.63;8.63;;;0.20;99.90;;;;;;6534158;22;20012;-82
2024/04/22 22:46:07;;;;;;;12.77;8.45;;;0.20;99.90;;;;;;6539739;22;20001;-82
2024/04/22 22:48:58;;;;;;;13.35;9.05;;;0.20;99.90;;;;;;6532564;21;20015;-84
2024/04/22 22:51:48;;;;;;;15.20;8.68;;;0.10;99.90;;;;;;6512860;22;20001;-82
2024/04/22 22:54:39;;;;;;;13.38;8.98;;;0.00;99.90;;;;;;6525331;21;20012;-82
2024/04/22 22:57:30;;;;;;;14.82;8.75;;;0.10;99.90;;;;;;6525752;22;20001;-82
2024/04/22 23:00:21;;;;;;;12.85;8.52;;;0.10;99.90;;;;;;6512983;22;20005;-81
2024/04/22 23:03:11;;;;;;;13.52;9.05;;;0.10;99.90;;;;;;6508812;22;20020;-83
2024/04/22 23:06:05;;;;;;;13.70;9.07;;;0.00;99.90;;;;;;6512019;22;20008;-81
2024/04/22 23:08:53;;;;;;;15.23;9.02;;;0.00;99.90;;;;;;6511013;21;20036;-83
2024/04/22 23:11:41;;;;;;;13.02;9.02;;;0.00;1.00;;;;;;6519172;22;20033;-82
2024/04/22 23:14:55;;;;;;;12.80;8.80;;;-0.10;1.00;;;;;;6511773;22;20019;-80
2024/04/22 23:17:51;;;;;;;14.52;9.45;;;0.00;1.00;;;;;;6515462;21;20005;-82
2024/04/22 23:20:41;;;;;;;16.15;9.88;;;-0.10;1.00;;;;;;6509801;22;20024;-83
2024/04/22 23:23:31;;;;;;;16.77;9.57;;;-0.20;1.00;;;;;;6510416;22;20001;-82
2024/04/22 23:26:21;;;;;;;25.65;10.15;;;-0.10;1.00;;;;;;6527598;21;20008;-82
2024/04/22 23:29:14;;;;;;;17.55;9.77;;;0.10;9.80;;;;;;6518965;21;20001;-82
2024/04/22 23:32:04;;;;;;;16.02;9.48;;;0.10;1.00;;;;;;6509127;22;20001;-82
2024/04/22 23:34:54;;;;;;;15.70;9.32;;;0.10;1.00;;;;;;6508340;22;20289;-82
2024/04/22 23:37:44;;;;;;;16.75;10.45;;;0.10;1.00;;;;;;6512886;21;20020;-83
2024/04/22 23:40:45;;;;;;;12.45;9.38;;;0.10;1.00;;;;;;6514466;21;20005;-82
2024/04/22 23:43:42;;;;;;;14.32;9.45;;;0.00;1.00;;;;;;6508905;22;20036;-83
2024/04/22 23:46:31;;;;;;;14.20;9.73;;;-0.10;1.00;;;;;;6511792;22;19998;-81
2024/04/22 23:49:19;;;;;;;11.90;8.70;;;-0.10;1.00;;;;;;6512422;21;20005;-83
2024/04/22 23:52:10;;;;;;;16.45;10.25;;;-0.20;1.00;;;;;;6520085;21;20019;-82
2024/04/22 23:55:00;;;;;;;;;;;-0.30;1.00;;;;;;6513481;21;20002;-82
2024/04/22 23:57:52;;;;;;;15.07;9.02;;;-0.30;33.00;;;;;;6519740;22;19922;-81
